Time;durP1;ratioP1;P1;durP2;ratioP2;P2;SDS_P1;SDS_P2;PMS_P1;PMS_P2;Temp;Humidity;BMP_temperature;BMP_pressure;BME280_temperature;BME280_humidity;BME280_pressure;Samples;Min_cycle;Max_cycle;Signal;HPM_P1;HPM_P2
2022/06/21 00:00:39;;;;;;;3.90;2.90;;;;;;;13.23;100.00;99116.88;4191799;28;21623;-68
2022/06/21 00:03:09;;;;;;;3.47;2.17;;;;;;;13.20;100.00;99119.91;4216784;28;20237;-68
2022/06/21 00:05:40;;;;;;;3.53;2.40;;;;;;;13.16;100.00;99129.34;4215698;28;20236;-65
2022/06/21 00:08:13;;;;;;;2.57;1.83;;;;;;;13.12;100.00;99128.09;4199188;28;20868;-67
2022/06/21 00:10:39;;;;;;;4.73;1.80;;;;;;;13.02;100.00;99126.59;4195335;28;20292;-65
2022/06/21 00:13:07;;;;;;;4.63;1.90;;;;;;;12.96;100.00;99122.00;4204849;28;21215;-68
2022/06/21 00:15:34;;;;;;;2.07;1.50;;;;;;;12.89;100.00;99126.47;4200317;28;20333;-67
2022/06/21 00:18:00;;;;;;;3.30;1.40;;;;;;;12.88;100.00;99119.47;4188864;28;20411;-71
2022/06/21 00:20:28;;;;;;;4.33;1.30;;;;;;;12.82;100.00;99123.72;4209168;28;21770;-67
2022/06/21 00:22:54;;;;;;;4.37;1.70;;;;;;;12.73;100.00;99116.03;4214262;28;23272;-67
2022/06/21 00:25:23;;;;;;;3.77;1.50;;;;;;;12.68;100.00;99119.28;4190989;28;21039;-67
2022/06/21 00:27:51;;;;;;;4.07;2.13;;;;;;;12.66;100.00;99116.78;4181176;28;21012;-66
2022/06/21 00:30:18;;;;;;;6.83;2.33;;;;;;;12.62;100.00;99120.88;4174040;28;20273;-68
2022/06/21 00:32:46;;;;;;;4.90;1.80;;;;;;;12.60;100.00;99100.75;4205489;28;23235;-67
2022/06/21 00:35:16;;;;;;;2.43;1.50;;;;;;;12.57;100.00;99104.63;4192985;28;20233;-64
2022/06/21 00:37:43;;;;;;;4.63;1.60;;;;;;;12.56;100.00;99100.28;4194321;28;20236;-67
2022/06/21 00:40:17;;;;;;;4.83;2.47;;;;;;;12.52;100.00;99103.53;4216128;28;20228;-66
2022/06/21 00:43:06;;;;;;;3.90;2.57;;;;;;;12.44;100.00;99093.81;4215552;28;20235;-68
2022/06/21 00:45:36;;;;;;;3.20;2.70;;;;;;;12.47;100.00;99093.44;4197705;28;20240;-67
2022/06/21 00:48:21;;;;;;;9.67;3.90;;;;;;;12.43;100.00;99085.00;4200549;28;20236;-69
2022/06/21 00:50:52;;;;;;;4.70;3.80;;;;;;;12.38;100.00;99092.72;4196635;28;21207;-67
2022/06/21 00:53:25;;;;;;;6.67;4.07;;;;;;;12.41;100.00;99091.53;4182923;28;21128;-68
2022/06/21 00:56:13;;;;;;;7.40;3.53;;;;;;;12.34;100.00;99091.47;4208033;28;20232;-67
2022/06/21 00:58:40;;;;;;;8.23;4.17;;;;;;;12.35;100.00;99082.44;4208607;28;20227;-66
2022/06/21 01:01:24;;;;;;;5.33;4.27;;;;;;;12.35;100.00;99089.63;4207814;28;20238;-66
2022/06/21 01:03:54;;;;;;;5.43;4.10;;;;;;;12.32;100.00;99082.00;4202156;28;20255;-68
2022/06/21 01:06:35;;;;;;;6.30;4.70;;;;;;;12.20;100.00;99085.16;4194283;28;20232;-67
2022/06/21 01:09:16;;;;;;;5.93;4.10;;;;;;;12.17;100.00;99096.19;4219062;28;20232;-66
2022/06/21 01:11:55;;;;;;;7.43;3.97;;;;;;;12.06;100.00;99090.50;4216966;28;20287;-67
2022/06/21 01:14:23;;;;;;;9.07;4.80;;;;;;;11.95;100.00;99086.50;4214748;28;20270;-67
2022/06/21 01:16:50;;;;;;;6.73;4.67;;;;;;;11.80;100.00;99098.00;4212220;28;20267;-67
2022/06/21 01:19:45;;;;;;;7.03;4.77;;;;;;;11.75;100.00;99100.41;4214007;28;20240;-67
2022/06/21 01:22:43;;;;;;;11.30;4.80;;;;;;;11.79;100.00;99100.84;4206527;28;20335;-66
2022/06/21 01:25:42;;;;;;;7.23;4.20;;;;;;;11.86;100.00;99099.06;4217692;28;20236;-66
2022/06/21 01:28:09;;;;;;;7.00;4.23;;;;;;;11.83;100.00;99100.28;4220760;28;23376;-67
2022/06/21 01:30:36;;;;;;;4.37;3.40;;;;;;;11.98;100.00;99094.13;4218166;28;21584;-67
2022/06/21 01:33:05;;;;;;;5.67;3.90;;;;;;;11.96;100.00;99090.81;4192040;28;20274;-68
2022/06/21 01:35:52;;;;;;;8.00;3.97;;;;;;;11.86;100.00;99083.09;4225446;28;21178;-67
2022/06/21 01:38:36;;;;;;;9.13;4.63;;;;;;;11.88;100.00;99081.09;4210759;28;20617;-68
2022/06/21 01:41:08;;;;;;;8.53;5.47;;;;;;;11.76;100.00;99080.72;4199202;28;20232;-66
2022/06/21 01:43:39;;;;;;;6.83;5.13;;;;;;;11.82;100.00;99065.81;4203005;28;20232;-66
2022/06/21 01:46:07;;;;;;;10.10;5.73;;;;;;;11.73;100.00;99070.44;4214412;28;23868;-68
2022/06/21 01:48:44;;;;;;;13.17;6.43;;;;;;;11.56;100.00;99066.31;4201719;28;20279;-66
2022/06/21 01:51:14;;;;;;;11.00;5.90;;;;;;;11.59;100.00;99060.63;4205267;28;20232;-66
2022/06/21 01:53:41;;;;;;;9.27;6.00;;;;;;;11.48;100.00;99069.09;4214298;28;20308;-68
2022/06/21 01:56:10;;;;;;;11.10;5.93;;;;;;;11.40;100.00;99062.00;4198430;28;20267;-67
2022/06/21 01:58:41;;;;;;;12.77;6.30;;;;;;;11.35;100.00;99070.53;4206480;28;21142;-63
2022/06/21 02:01:14;;;;;;;13.23;6.47;;;;;;;11.33;100.00;99083.22;4202378;28;20240;-64
2022/06/21 02:03:42;;;;;;;12.50;7.40;;;;;;;11.27;100.00;99085.78;4212824;28;20237;-63
2022/06/21 02:06:12;;;;;;;12.77;7.47;;;;;;;11.27;100.00;99101.78;4207294;28;22190;-64
2022/06/21 02:08:55;;;;;;;12.67;6.90;;;;;;;11.22;100.00;99107.63;4212282;28;20853;-63
2022/06/21 02:11:28;;;;;;;11.93;7.43;;;;;;;11.26;100.00;99114.25;4213465;28;21490;-63
2022/06/21 02:16:47;;;;;;;17.47;7.93;;;;;;;11.27;100.00;99093.78;4211682;28;20559;-64
2022/06/21 02:19:26;;;;;;;12.20;8.17;;;;;;;11.32;100.00;99097.53;4203595;28;20243;-65
2022/06/21 02:21:53;;;;;;;13.93;7.17;;;;;;;11.37;100.00;99102.31;4224678;28;20227;-64
2022/06/21 02:24:23;;;;;;;13.57;6.50;;;;;;;11.44;100.00;99107.75;4201318;28;20295;-65
2022/06/21 02:26:50;;;;;;;13.07;6.47;;;;;;;11.45;100.00;99101.38;4203120;28;20315;-65
2022/06/21 02:29:17;;;;;;;16.20;6.83;;;;;;;11.51;100.00;99101.50;4204618;28;21178;-64
2022/06/21 02:31:44;;;;;;;12.03;6.77;;;;;;;11.49;100.00;99106.16;4218444;28;20236;-64
2022/06/21 02:34:21;;;;;;;15.27;6.73;;;;;;;11.50;100.00;99107.03;4216164;28;20843;-64
2022/06/21 02:36:55;;;;;;;11.70;6.70;;;;;;;11.52;100.00;99096.97;4212101;28;20240;-63
2022/06/21 02:39:24;;;;;;;9.97;6.53;;;;;;;11.55;100.00;99102.78;4208744;28;21347;-64
2022/06/21 02:41:56;;;;;;;10.63;6.40;;;;;;;11.56;100.00;99098.28;4215133;28;20232;-64
2022/06/21 02:44:28;;;;;;;11.43;6.87;;;;;;;11.65;100.00;99099.84;4215314;28;20235;-64
2022/06/21 02:46:57;;;;;;;9.33;6.20;;;;;;;11.63;100.00;99093.84;4196803;28;20238;-64
2022/06/21 02:49:34;;;;;;;12.50;7.40;;;;;;;11.60;100.00;99089.72;4216065;28;20328;-65
2022/06/21 02:52:18;;;;;;;9.27;6.80;;;;;;;11.61;100.00;99082.56;4215192;28;20568;-65
2022/06/21 02:54:53;;;;;;;13.97;7.40;;;;;;;11.54;100.00;99081.66;4215562;28;22987;-64
2022/06/21 02:57:25;;;;;;;13.07;7.53;;;;;;;11.58;100.00;99080.28;4226771;28;21307;-64
2022/06/21 02:59:54;;;;;;;16.70;7.60;;;;;;;11.63;100.00;99088.53;4212209;28;21820;-63
2022/06/21 03:02:24;;;;;;;18.27;7.97;;;;;;;11.59;100.00;99085.44;4205614;28;20237;-66
2022/06/21 03:05:01;;;;;;;12.43;7.07;;;;;;;11.63;100.00;99083.19;4220158;28;20231;-64
2022/06/21 03:07:40;;;;;;;11.80;7.10;;;;;;;11.63;100.00;99083.19;4230293;28;20252;-65
2022/06/21 03:10:18;;;;;;;12.60;6.57;;;;;;;11.67;100.00;99086.34;4223074;28;23086;-65
2022/06/21 03:12:47;;;;;;;11.13;7.43;;;;;;;11.65;100.00;99083.84;4215837;28;20228;-64
2022/06/21 03:15:13;;;;;;;11.90;7.77;;;;;;;11.60;100.00;99084.41;4237508;28;20228;-65
2022/06/21 03:17:52;;;;;;;13.37;7.53;;;;;;;11.65;100.00;99086.50;4241233;28;20279;-63
2022/06/21 03:20:20;;;;;;;12.57;7.40;;;;;;;11.69;100.00;99084.31;4215100;28;22882;-65
2022/06/21 03:22:48;;;;;;;14.23;7.93;;;;;;;11.76;100.00;99083.38;4228753;28;20232;-65
2022/06/21 03:25:24;;;;;;;12.63;7.80;;;;;;;11.72;100.00;99087.41;4222056;28;20243;-65
2022/06/21 03:27:59;;;;;;;13.13;8.23;;;;;;;11.85;100.00;99086.78;4225483;28;20239;-65
2022/06/21 03:30:32;;;;;;;12.20;7.70;;;;;;;11.82;100.00;99090.66;4228142;28;20314;-64
2022/06/21 03:33:01;;;;;;;13.60;7.87;;;;;;;11.87;100.00;99098.13;4217202;28;20653;-64
2022/06/21 03:35:31;;;;;;;15.20;7.67;;;;;;;11.92;100.00;99097.56;4214032;28;26434;-63
2022/06/21 03:37:57;;;;;;;13.93;8.20;;;;;;;11.92;100.00;99089.56;4213608;28;24186;-63
2022/06/21 03:43:34;;;;;;;13.20;7.60;;;;;;;11.96;100.00;99093.47;4204590;28;20240;-64
2022/06/21 03:46:02;;;;;;;11.77;7.27;;;;;;;12.02;100.00;99088.22;4218328;28;20242;-64
2022/06/21 03:48:33;;;;;;;14.57;7.53;;;;;;;12.00;100.00;99089.44;4224541;28;23747;-68
2022/06/21 03:51:07;;;;;;;18.07;7.67;;;;;;;11.98;100.00;99081.63;4214995;28;20232;-63
2022/06/21 03:54:01;;;;;;;12.47;7.43;;;;;;;11.92;100.00;99084.22;4218454;28;21035;-65
2022/06/21 03:56:47;;;;;;;14.00;8.10;;;;;;;11.99;100.00;99091.28;4229454;28;20241;-64
2022/06/21 03:59:44;;;;;;;12.37;6.90;;;;;;;11.91;100.00;99085.22;4233490;28;20287;-63
2022/06/21 04:02:51;;;;;;;11.63;6.73;;;;;;;11.94;100.00;99084.84;4218498;28;20347;-64
2022/06/21 04:05:25;;;;;;;14.80;6.77;;;;;;;12.09;100.00;99077.66;4204458;28;21461;-65
2022/06/21 04:08:17;;;;;;;13.73;6.57;;;;;;;12.19;100.00;99080.00;4199995;28;20434;-63
2022/06/21 04:10:59;;;;;;;15.37;6.60;;;;;;;12.20;100.00;99081.66;4239602;28;20315;-63
2022/06/21 04:13:35;;;;;;;9.23;6.10;;;;;;;12.18;100.00;99079.19;4279489;28;20229;-67
2022/06/21 04:16:27;;;;;;;11.67;6.47;;;;;;;12.20;100.00;99085.16;4227846;28;25957;-66
2022/06/21 04:18:58;;;;;;;11.77;6.37;;;;;;;12.19;100.00;99088.00;4249940;28;20349;-66
2022/06/21 04:21:34;;;;;;;14.37;6.30;;;;;;;12.23;100.00;99079.44;4258620;28;20236;-66
2022/06/21 04:24:10;;;;;;;11.03;6.30;;;;;;;12.13;100.00;99078.09;4288192;28;20361;-71
2022/06/21 04:26:46;;;;;;;10.37;6.03;;;;;;;12.06;100.00;99091.38;4238851;28;20232;-70
2022/06/21 04:29:29;;;;;;;11.33;5.47;;;;;;;11.97;100.00;99077.31;4299679;28;23001;-71
2022/06/21 04:32:04;;;;;;;15.30;5.47;;;;;;;11.93;100.00;99072.53;4283716;28;20302;-70
2022/06/21 04:34:36;;;;;;;12.53;5.83;;;;;;;12.01;100.00;99072.41;4205160;28;20285;-73
2022/06/21 04:37:10;;;;;;;12.00;5.20;;;;;;;12.01;100.00;99075.94;4282377;28;20241;-72
2022/06/21 04:39:43;;;;;;;9.03;5.23;;;;;;;12.11;100.00;99067.63;4218483;28;20233;-68
2022/06/21 04:42:17;;;;;;;8.77;5.23;;;;;;;12.08;100.00;99076.00;4204330;28;20361;-76
2022/06/21 04:44:54;;;;;;;9.60;5.47;;;;;;;12.06;100.00;99078.03;4212481;28;20228;-70
2022/06/21 04:47:30;;;;;;;11.67;5.20;;;;;;;12.28;100.00;99068.19;4194837;28;20233;-71
2022/06/21 04:50:15;;;;;;;11.67;5.33;;;;;;;12.43;100.00;99073.47;4212201;28;20232;-74
2022/06/21 04:52:54;;;;;;;9.50;5.17;;;;;;;12.73;97.97;99076.00;4201637;28;20244;-72
2022/06/21 04:55:26;;;;;;;10.00;5.03;;;;;;;12.69;98.23;99067.56;4201739;28;21663;-69
2022/06/21 04:57:54;;;;;;;7.93;4.67;;;;;;;12.84;96.57;99056.81;4210554;28;20307;-70
2022/06/21 05:00:20;;;;;;;7.30;4.50;;;;;;;13.07;94.96;99060.06;4245093;28;20293;-72
2022/06/21 05:02:53;;;;;;;6.83;4.10;;;;;;;13.32;93.08;99067.63;4225999;28;20251;-69
2022/06/21 05:05:26;;;;;;;11.17;4.67;;;;;;;13.02;92.51;99070.50;4219357;28;20243;-70
2022/06/21 05:08:01;;;;;;;6.40;4.60;;;;;;;12.91;92.83;99079.03;4233216;28;20511;-70
2022/06/21 05:10:37;;;;;;;9.37;5.30;;;;;;;12.62;94.11;99086.19;4259308;28;20423;-74
2022/06/21 05:13:12;;;;;;;10.40;5.77;;;;;;;12.51;95.95;99073.34;4251901;28;20236;-71
2022/06/21 05:15:40;;;;;;;8.20;5.23;;;;;;;12.49;95.96;99078.06;4238282;28;20279;-68
2022/06/21 05:18:08;;;;;;;8.07;4.93;;;;;;;12.53;95.69;99079.34;4212625;28;20290;-69
2022/06/21 05:20:36;;;;;;;10.97;4.90;;;;;;;12.59;96.27;99075.88;4219572;28;20227;-68
2022/06/21 05:23:05;;;;;;;9.73;5.73;;;;;;;12.56;96.50;99078.94;4229912;28;20343;-68
2022/06/21 05:25:35;;;;;;;12.87;5.07;;;;;;;12.43;95.83;99077.00;4233287;28;20236;-68
2022/06/21 05:28:44;;;;;;;8.40;4.80;;;;;;;12.37;95.50;99087.59;4246624;28;20645;-70
2022/06/21 05:31:20;;;;;;;11.27;5.37;;;;;;;12.19;98.50;99077.34;4242837;28;20281;-66
2022/06/21 05:33:50;;;;;;;11.00;5.10;;;;;;;12.03;98.71;99078.38;4235557;28;21167;-72
2022/06/21 05:36:40;;;;;;;10.93;5.63;;;;;;;12.04;100.00;99085.38;4236734;28;20235;-68
2022/06/21 05:39:20;;;;;;;8.90;4.97;;;;;;;11.91;100.00;99079.88;4221627;28;26269;-67
2022/06/21 05:41:50;;;;;;;13.03;5.40;;;;;;;12.02;100.00;99082.91;4204103;28;20241;-68
2022/06/21 05:44:35;;;;;;;10.07;4.97;;;;;;;12.00;100.00;99079.59;4215934;28;20252;-68
2022/06/21 05:47:17;;;;;;;9.63;4.57;;;;;;;12.03;99.83;99073.06;4212507;28;21821;-67
2022/06/21 05:49:43;;;;;;;8.60;4.63;;;;;;;12.07;99.95;99077.00;4196345;28;22539;-67
2022/06/21 05:52:29;;;;;;;6.83;4.60;;;;;;;12.07;100.00;99082.34;4215867;28;20813;-70
2022/06/21 05:55:00;;;;;;;11.70;7.50;;;;;;;12.06;100.00;99078.03;4217083;28;20232;-68
2022/06/21 05:57:35;;;;;;;11.17;7.87;;;;;;;11.99;100.00;99080.63;4211429;28;20326;-67
2022/06/21 06:00:04;;;;;;;12.67;7.63;;;;;;;12.04;100.00;99074.72;4205242;28;20240;-68
2022/06/21 06:02:40;;;;;;;11.37;6.57;;;;;;;12.12;100.00;99090.59;4210195;28;22918;-67
2022/06/21 06:05:17;;;;;;;11.40;5.93;;;;;;;12.25;99.32;99077.41;4208963;28;20240;-70
2022/06/21 06:07:53;;;;;;;8.63;3.87;;;;;;;13.35;90.65;99083.28;4208291;28;20333;-69
2022/06/21 06:10:21;;;;;;;5.07;3.17;;;;;;;14.54;81.45;99087.47;4201420;28;20593;-70
2022/06/21 06:12:51;;;;;;;6.00;3.07;;;;;;;14.73;79.00;99081.31;4215261;28;20238;-66
2022/06/21 06:15:23;;;;;;;3.70;2.50;;;;;;;14.47;78.59;99076.72;4228444;28;21940;-68
2022/06/21 06:17:56;;;;;;;5.60;2.53;;;;;;;15.63;73.65;99076.22;4216915;28;20307;-69
2022/06/21 06:20:45;;;;;;;3.87;2.60;;;;;;;15.83;73.54;99075.38;4213290;28;20233;-67
2022/06/21 06:23:22;;;;;;;10.30;3.10;;;;;;;14.94;76.01;99077.59;4217037;28;20236;-67
2022/06/21 06:25:53;;;;;;;10.63;3.43;;;;;;;14.53;78.86;99075.06;4205248;28;20279;-66
2022/06/21 06:28:30;;;;;;;4.53;3.27;;;;;;;13.87;79.79;99071.19;4211958;28;20236;-70
2022/06/21 06:31:09;;;;;;;9.27;4.23;;;;;;;13.57;84.47;99076.00;4211709;28;20251;-65
2022/06/21 06:33:40;;;;;;;8.43;3.93;;;;;;;13.33;86.84;99068.47;4198878;28;20240;-67
2022/06/21 06:36:20;;;;;;;6.27;3.80;;;;;;;13.42;87.10;99073.47;4195994;28;20377;-66
2022/06/21 06:38:46;;;;;;;7.60;3.77;;;;;;;13.62;86.07;99072.72;4226134;28;20891;-67
2022/06/21 06:41:20;;;;;;;7.73;3.20;;;;;;;13.87;83.50;99079.22;4213832;28;21045;-66
2022/06/21 06:43:54;;;;;;;8.00;2.90;;;;;;;13.55;82.59;99072.69;4206639;28;20234;-70
2022/06/21 06:46:28;;;;;;;8.47;2.70;;;;;;;13.55;84.10;99071.88;4218051;28;20305;-72
2022/06/21 06:49:20;;;;;;;5.73;2.50;;;;;;;13.60;82.46;99077.44;4214992;28;20275;-72
2022/06/21 06:51:51;;;;;;;5.57;2.07;;;;;;;13.56;82.52;99077.03;4221807;28;20237;-68
2022/06/21 06:54:40;;;;;;;4.70;2.90;;;;;;;13.41;85.33;99082.47;4213489;28;20682;-57
2022/06/21 06:57:20;;;;;;;8.47;2.30;;;;;;;12.89;88.30;99083.75;4178075;28;22920;-65
2022/06/21 06:59:46;;;;;;;8.50;2.20;;;;;;;12.35;92.87;99087.75;4213188;28;21398;-67
2022/06/21 07:02:21;;;;;;;5.93;2.70;;;;;;;12.10;96.11;99100.63;4207420;28;20236;-63
2022/06/21 07:04:57;;;;;;;4.70;3.13;;;;;;;11.95;99.70;99086.50;4192495;28;23574;-63
2022/06/21 07:07:32;;;;;;;6.17;3.20;;;;;;;11.76;99.36;99093.22;4187410;28;21131;-64
2022/06/21 07:10:02;;;;;;;6.77;3.20;;;;;;;11.62;100.00;99092.22;4214766;28;20448;-64
2022/06/21 07:12:30;;;;;;;9.10;3.43;;;;;;;11.59;100.00;99088.09;4174981;28;20255;-63
2022/06/21 07:14:57;;;;;;;5.10;3.07;;;;;;;11.81;100.00;99091.63;4211211;28;20346;-67
2022/06/21 07:17:39;;;;;;;7.37;3.17;;;;;;;12.00;100.00;99100.09;4188920;28;21112;-67
2022/06/21 07:20:19;;;;;;;8.83;3.47;;;;;;;12.17;100.00;99096.19;4221626;28;20301;-66
2022/06/21 07:22:46;;;;;;;7.57;2.97;;;;;;;12.03;98.08;99100.56;4195848;28;20236;-68
2022/06/21 07:25:28;;;;;;;5.97;2.30;;;;;;;11.82;95.60;99097.78;4186352;28;20597;-65
2022/06/21 07:28:01;;;;;;;3.10;1.97;;;;;;;11.58;95.90;99085.59;4182193;28;20598;-65
2022/06/21 07:30:38;;;;;;;4.43;2.40;;;;;;;11.43;98.11;99103.44;4204237;28;21667;-67
2022/06/21 07:33:13;;;;;;;4.97;2.60;;;;;;;11.38;98.00;99102.16;4185350;28;20409;-63
2022/06/21 07:35:47;;;;;;;5.07;2.30;;;;;;;11.35;98.11;99091.84;4202772;28;20242;-62
2022/06/21 07:38:23;;;;;;;3.00;2.43;;;;;;;11.40;99.25;99100.13;4213918;28;20663;-61
2022/06/21 07:40:54;;;;;;;8.33;2.83;;;;;;;11.49;99.01;99100.84;4225406;28;22653;-63
2022/06/21 07:43:25;;;;;;;7.57;2.80;;;;;;;11.44;99.14;99105.91;4198470;28;20316;-65
2022/06/21 07:45:55;;;;;;;7.63;2.80;;;;;;;11.40;99.36;99116.09;4231195;28;20232;-66
2022/06/21 07:48:32;;;;;;;5.10;2.90;;;;;;;11.43;99.81;99098.94;4186865;28;20603;-65
2022/06/21 07:51:04;;;;;;;5.53;3.50;;;;;;;11.36;100.00;99104.16;4177176;28;20236;-65
2022/06/21 07:53:43;;;;;;;5.37;3.00;;;;;;;11.38;100.00;99110.13;4205116;28;20235;-64
2022/06/21 07:56:23;;;;;;;6.10;2.90;;;;;;;11.37;100.00;99094.31;4205640;28;20641;-65
2022/06/21 07:59:00;;;;;;;10.73;3.50;;;;;;;11.44;100.00;99105.09;4220236;28;20240;-65
2022/06/21 08:07:44;;;;;;;5.27;3.33;;;;;;;11.71;99.51;99111.63;4237372;28;20228;-66
2022/06/21 08:10:34;;;;;;;5.17;3.13;;;;;;;11.84;100.00;99117.91;4215693;28;20255;-67
2022/06/21 08:13:01;;;;;;;5.17;3.17;;;;;;;11.83;100.00;99113.59;4195656;28;20635;-64
2022/06/21 08:15:31;;;;;;;6.07;3.77;;;;;;;11.51;100.00;99119.31;4205275;28;22920;-68
2022/06/21 08:18:04;;;;;;;6.73;3.90;;;;;;;11.41;100.00;99117.75;4202720;28;20245;-63
2022/06/21 08:20:49;;;;;;;5.50;3.57;;;;;;;11.30;100.00;99104.88;4227217;28;20441;-64
2022/06/21 08:23:20;;;;;;;8.13;4.00;;;;;;;11.20;100.00;99104.31;4196411;28;20517;-67
2022/06/21 08:26:01;;;;;;;7.47;4.50;;;;;;;11.13;100.00;99112.22;4202882;28;20340;-64
2022/06/21 08:28:49;;;;;;;4.40;3.77;;;;;;;11.12;100.00;99117.69;4198772;28;23100;-65
2022/06/21 08:31:29;;;;;;;6.13;4.20;;;;;;;11.11;100.00;99118.72;4200969;28;21096;-65
2022/06/21 08:34:11;;;;;;;11.33;4.07;;;;;;;11.13;100.00;99125.53;4225925;28;21509;-66
2022/06/21 08:36:44;;;;;;;8.20;3.50;;;;;;;11.05;100.00;99122.09;4211973;28;21194;-68
2022/06/21 08:39:19;;;;;;;13.87;4.20;;;;;;;11.11;100.00;99134.69;4191607;28;20346;-64
2022/06/21 08:42:06;;;;;;;9.37;4.00;;;;;;;11.16;100.00;99122.50;4244835;28;21061;-65
2022/06/21 08:45:40;;;;;;;6.17;3.60;;;;;;;11.30;100.00;99139.50;4232165;28;20829;-66
2022/06/21 08:48:01;;;;;;;6.93;3.60;;;;;;;11.39;100.00;99130.41;4240487;28;21665;-67
2022/06/21 08:50:55;;;;;;;5.80;2.97;;;;;;;11.22;100.00;99128.13;4220462;28;21203;-67
2022/06/21 08:53:45;;;;;;;5.27;2.90;;;;;;;11.09;100.00;99131.38;4214745;28;20608;-64
2022/06/21 08:56:49;;;;;;;4.77;2.90;;;;;;;10.99;100.00;99137.78;4223804;28;20236;-65
2022/06/21 08:59:42;;;;;;;5.50;2.63;;;;;;;11.24;100.00;99139.41;4169637;28;22652;-65
2022/06/21 09:02:40;;;;;;;4.53;2.80;;;;;;;11.49;100.00;99153.31;4226172;28;20244;-65
2022/06/21 09:05:31;;;;;;;6.70;2.90;;;;;;;11.75;100.00;99140.38;4214919;28;20247;-66
2022/06/21 09:08:19;;;;;;;5.73;2.77;;;;;;;12.13;100.00;99142.09;4243241;28;20237;-65
2022/06/21 09:10:57;;;;;;;4.93;2.73;;;;;;;12.60;100.00;99138.94;4221971;28;22187;-66
2022/06/21 09:13:46;;;;;;;5.00;2.60;;;;;;;12.84;98.22;99150.25;4196469;28;23354;-63
2022/06/21 09:16:26;;;;;;;5.73;2.40;;;;;;;12.99;94.10;99142.97;4204064;28;20335;-64
2022/06/21 09:19:06;;;;;;;2.93;2.10;;;;;;;13.32;92.02;99131.75;4202149;28;20637;-64
2022/06/21 09:21:51;;;;;;;2.37;1.80;;;;;;;13.37;88.91;99139.19;4225866;28;22051;-63
2022/06/21 09:24:17;;;;;;;3.50;1.77;;;;;;;13.50;87.34;99141.94;4212366;28;20292;-67
2022/06/21 09:26:58;;;;;;;7.57;1.90;;;;;;;13.62;85.33;99137.69;4215107;28;20425;-68
2022/06/21 09:29:29;;;;;;;4.70;1.80;;;;;;;13.54;83.20;99142.41;4211169;28;21924;-63
2022/06/21 09:32:01;;;;;;;3.47;1.63;;;;;;;13.17;85.02;99133.66;4228266;28;20316;-65
2022/06/21 09:34:40;;;;;;;6.40;1.67;;;;;;;12.78;88.08;99135.81;4196858;28;20314;-62
2022/06/21 09:37:21;;;;;;;3.20;2.00;;;;;;;12.64;90.03;99140.22;4210154;28;20372;-66
2022/06/21 09:40:25;;;;;;;4.63;2.40;;;;;;;12.39;93.94;99147.75;4223553;28;21634;-64
2022/06/21 09:43:22;;;;;;;4.63;2.37;;;;;;;12.13;99.05;99150.09;4216696;28;20240;-67
2022/06/21 09:46:27;;;;;;;3.10;2.00;;;;;;;12.01;98.76;99165.72;4212570;28;20566;-69
2022/06/21 09:49:03;;;;;;;4.57;2.50;;;;;;;11.91;100.00;99159.88;4197344;28;20232;-67
2022/06/21 09:51:42;;;;;;;4.47;2.70;;;;;;;11.90;100.00;99161.72;4214454;28;20318;-66
2022/06/21 09:54:23;;;;;;;4.00;2.60;;;;;;;11.64;100.00;99166.66;4224692;28;20237;-65
2022/06/21 09:57:05;;;;;;;5.97;2.50;;;;;;;11.84;100.00;99170.41;4233924;28;20375;-67
2022/06/21 09:59:40;;;;;;;4.80;2.10;;;;;;;12.03;100.00;99167.22;4256864;28;20419;-67
2022/06/21 10:02:26;;;;;;;8.23;2.73;;;;;;;12.16;100.00;99169.22;4218328;28;21321;-65
2022/06/21 10:05:31;;;;;;;6.10;2.30;;;;;;;12.39;100.00;99163.75;4220568;28;20414;-62
2022/06/21 10:08:09;;;;;;;5.27;2.40;;;;;;;12.61;100.00;99151.25;4209135;28;20239;-67
2022/06/21 10:11:17;;;;;;;5.83;2.40;;;;;;;13.02;100.00;99149.78;4229943;28;20798;-62
2022/06/21 10:13:56;;;;;;;5.33;2.67;;;;;;;13.24;100.00;99158.59;4248899;28;23444;-63
2022/06/21 10:16:57;;;;;;;5.83;2.77;;;;;;;13.43;97.74;99149.91;4211415;28;20291;-64
2022/06/21 10:19:39;;;;;;;5.03;2.57;;;;;;;13.57;96.13;99160.72;4214551;28;20249;-64
2022/06/21 10:22:30;;;;;;;4.53;2.03;;;;;;;13.51;94.14;99157.81;4241441;28;20243;-43
2022/06/21 10:25:24;;;;;;;4.10;1.83;;;;;;;13.92;90.82;99143.63;4245106;28;22647;-41
2022/06/21 10:28:20;;;;;;;3.90;2.00;;;;;;;14.27;88.07;99143.56;4221468;28;20243;-66
2022/06/21 10:30:58;;;;;;;10.47;1.70;;;;;;;14.34;83.22;99132.88;4211412;28;20276;-65
2022/06/21 10:33:54;;;;;;;3.37;1.70;;;;;;;14.55;83.38;99145.31;4240622;28;20332;-66
2022/06/21 10:36:32;;;;;;;7.90;1.60;;;;;;;14.66;83.29;99149.28;4219183;28;21257;-65
2022/06/21 10:39:17;;;;;;;5.17;1.70;;;;;;;14.32;83.96;99127.72;4226995;28;20234;-78
2022/06/21 10:45:08;;;;;;;3.73;1.90;;;;;;;13.93;85.88;99141.81;4243317;28;20410;-74
2022/06/21 10:47:48;;;;;;;3.63;1.77;;;;;;;14.17;83.60;99143.13;4230687;28;21758;-76
2022/06/21 10:50:40;;;;;;;4.30;1.70;;;;;;;14.63;83.62;99139.78;4203875;28;20275;-74
2022/06/21 10:53:27;;;;;;;9.03;1.77;;;;;;;14.96;83.69;99149.69;4224334;28;20540;-73
2022/06/21 10:58:55;;;;;;;4.73;1.70;;;;;;;15.26;81.72;99144.75;4254715;28;20420;-71
2022/06/21 11:01:31;;;;;;;5.40;1.30;;;;;;;15.53;77.68;99134.84;4215169;28;21390;-72
2022/06/21 11:04:22;;;;;;;4.97;1.73;;;;;;;15.84;79.00;99130.66;4266387;28;20270;-75
2022/06/21 11:06:58;;;;;;;3.70;1.30;;;;;;;15.75;73.24;99121.19;4193374;28;22513;-73
2022/06/21 11:09:31;;;;;;;3.17;1.40;;;;;;;15.68;72.09;99134.59;4250850;28;20228;-72
2022/06/21 11:15:11;;;;;;;5.87;1.60;;;;;;;14.44;74.71;99124.47;4220762;28;20235;-74
2022/06/21 11:18:14;;;;;;;2.60;1.10;;;;;;;13.88;78.03;99144.22;4197784;28;20245;-74
2022/06/21 11:20:49;;;;;;;9.20;1.40;;;;;;;13.56;81.37;99138.50;4214690;28;20552;-71
2022/06/21 11:23:52;;;;;;;6.40;1.40;;;;;;;13.62;84.08;99132.34;4195944;28;20232;-63
2022/06/21 11:26:42;;;;;;;5.67;1.30;;;;;;;14.03;84.51;99133.41;4237856;28;20228;-66
2022/06/21 11:29:21;;;;;;;4.33;1.20;;;;;;;14.38;81.69;99144.03;4213928;28;20240;-64
2022/06/21 11:31:54;;;;;;;4.33;1.20;;;;;;;14.72;80.17;99141.22;4212729;28;20255;-65
2022/06/21 11:34:32;;;;;;;5.10;1.53;;;;;;;15.15;82.85;99137.38;4209090;28;20447;-63
2022/06/21 11:37:25;;;;;;;4.07;1.47;;;;;;;15.46;75.33;99128.66;4224908;28;21605;-65
2022/06/21 11:40:04;;;;;;;2.67;1.10;;;;;;;15.74;75.21;99127.59;4241778;28;20241;-73
2022/06/21 11:42:49;;;;;;;5.23;1.07;;;;;;;16.11;74.64;99127.88;4241867;28;20239;-78
2022/06/21 11:45:46;;;;;;;4.43;1.03;;;;;;;16.04;72.17;99131.41;4229588;28;20244;-72
2022/06/21 11:48:53;;;;;;;5.37;1.07;;;;;;;15.45;70.42;99118.13;4270891;28;21733;-73
2022/06/21 11:51:26;;;;;;;4.93;1.07;;;;;;;15.33;70.15;99134.03;4223524;28;20240;-71
2022/06/21 11:54:00;;;;;;;3.33;0.97;;;;;;;15.33;72.06;99132.16;4215857;28;20244;-74
2022/06/21 11:56:46;;;;;;;4.83;1.30;;;;;;;15.40;72.07;99137.53;4219716;28;20859;-73
2022/06/21 11:59:51;;;;;;;4.40;1.00;;;;;;;15.29;71.55;99143.50;4228483;28;20252;-74
2022/06/21 12:02:32;;;;;;;2.80;0.93;;;;;;;15.06;72.12;99149.31;4201829;28;21322;-72
2022/06/21 12:05:34;;;;;;;7.53;1.20;;;;;;;14.90;74.25;99150.53;4189016;28;21540;-71
2022/06/21 12:08:11;;;;;;;8.83;1.27;;;;;;;14.93;74.93;99150.13;4190918;28;20307;-76
2022/06/21 12:11:01;;;;;;;4.17;1.00;;;;;;;15.05;75.90;99148.47;4206013;28;20243;-69
2022/06/21 12:13:36;;;;;;;4.77;1.10;;;;;;;15.21;74.67;99149.91;4223177;28;20273;-72
2022/06/21 12:16:27;;;;;;;2.70;1.10;;;;;;;15.20;75.44;99154.47;4212061;28;20228;-74
2022/06/21 12:19:03;;;;;;;2.43;1.00;;;;;;;15.29;74.50;99205.16;4216195;28;20473;-72
2022/06/21 12:21:32;;;;;;;6.33;1.10;;;;;;;14.69;79.93;99213.13;4187410;28;20256;-74
2022/06/21 12:24:06;;;;;;;6.87;0.90;;;;;;;13.94;84.53;99219.13;4220847;28;20271;-76
2022/06/21 12:26:40;;;;;;;7.83;1.03;;;;;;;13.25;90.98;99227.00;4205989;28;20245;-72
2022/06/21 12:29:15;;;;;;;4.43;0.97;;;;;;;13.06;92.28;99218.66;4207824;28;20270;-74
2022/06/21 12:31:48;;;;;;;3.80;0.80;;;;;;;12.83;94.67;99212.66;4205857;28;20239;-72
2022/06/21 12:34:26;;;;;;;1.13;0.67;;;;;;;12.74;96.86;99203.94;4208540;28;20359;-71
2022/06/21 12:37:10;;;;;;;2.30;0.60;;;;;;;12.93;96.26;99199.00;4225184;28;20549;-75